createdAt,value
2023-05-05T00:00:16.000Z,0
2023-05-05T00:01:32.000Z,0
2023-05-05T00:02:48.000Z,0
2023-05-05T00:04:05.000Z,0
2023-05-05T00:05:21.000Z,0
2023-05-05T00:06:37.000Z,0
2023-05-05T00:07:53.000Z,0
2023-05-05T00:09:10.000Z,0
2023-05-05T00:10:26.000Z,0
2023-05-05T00:11:42.000Z,0
2023-05-05T00:12:59.000Z,0
2023-05-05T00:14:14.000Z,0
2023-05-05T00:15:30.000Z,0
2023-05-05T00:16:46.000Z,0
2023-05-05T00:18:03.000Z,0
2023-05-05T00:19:19.000Z,0
2023-05-05T00:20:35.982Z,0
2023-05-05T00:21:52.000Z,0
2023-05-05T00:23:08.000Z,0
2023-05-05T00:24:24.000Z,0
2023-05-05T00:25:41.130Z,0
2023-05-05T00:26:57.000Z,0
2023-05-05T00:28:13.000Z,0
2023-05-05T00:29:29.000Z,0
2023-05-05T00:30:45.000Z,0
2023-05-05T00:32:01.000Z,0
2023-05-05T00:33:17.000Z,0
2023-05-05T00:34:33.000Z,0
2023-05-05T00:35:50.000Z,0
2023-05-05T00:37:06.000Z,0
2023-05-05T00:38:22.000Z,0
2023-05-05T00:39:39.000Z,0
2023-05-05T00:40:55.000Z,0
2023-05-05T00:42:11.000Z,0
2023-05-05T00:43:27.000Z,0
2023-05-05T00:44:44.000Z,0
2023-05-05T00:46:00.000Z,0
2023-05-05T00:47:15.000Z,0
2023-05-05T00:48:32.000Z,0
2023-05-05T00:49:48.000Z,0
2023-05-05T00:51:04.000Z,0
2023-05-05T00:52:20.000Z,0
2023-05-05T00:53:37.000Z,0
2023-05-05T00:54:53.000Z,0
2023-05-05T00:56:09.000Z,0
2023-05-05T00:57:26.000Z,0
2023-05-05T00:58:42.000Z,0
2023-05-05T00:59:58.000Z,0
2023-05-05T01:01:14.000Z,0
2023-05-05T01:02:30.000Z,0
2023-05-05T01:03:46.000Z,0
2023-05-05T01:05:02.000Z,0
2023-05-05T01:06:19.000Z,0
2023-05-05T01:07:35.000Z,0
2023-05-05T01:08:51.000Z,0
2023-05-05T01:10:07.000Z,0
2023-05-05T01:11:24.000Z,0
2023-05-05T01:12:40.000Z,0
2023-05-05T01:13:56.000Z,0
2023-05-05T01:15:13.000Z,0
2023-05-05T01:16:29.687Z,0
2023-05-05T01:17:45.000Z,0
2023-05-05T01:19:01.000Z,0
2023-05-05T01:20:17.000Z,0
2023-05-05T01:21:33.000Z,0
2023-05-05T01:22:49.000Z,0
2023-05-05T01:24:06.000Z,0
2023-05-05T01:25:22.000Z,0
2023-05-05T01:26:38.000Z,0
2023-05-05T01:27:55.000Z,0
2023-05-05T01:29:11.000Z,0
2023-05-05T01:30:27.873Z,0
2023-05-05T01:31:43.000Z,0
2023-05-05T01:33:00.000Z,0
2023-05-05T01:34:15.000Z,0
2023-05-05T01:35:30.000Z,0
2023-05-05T01:36:47.000Z,0
2023-05-05T01:38:03.000Z,0
2023-05-05T01:39:19.000Z,0
2023-05-05T01:40:35.000Z,0
2023-05-05T01:41:52.469Z,0
2023-05-05T01:43:08.000Z,0
2023-05-05T01:44:24.000Z,0
2023-05-05T01:45:41.000Z,0
2023-05-05T01:46:57.000Z,0
2023-05-05T01:48:13.000Z,0
2023-05-05T01:49:29.000Z,0
2023-05-05T01:50:46.000Z,0
2023-05-05T01:52:01.000Z,0
2023-05-05T01:53:17.000Z,0
2023-05-05T01:54:34.000Z,0
2023-05-05T01:55:50.000Z,0
2023-05-05T01:57:06.000Z,0
2023-05-05T01:58:22.000Z,0
2023-05-05T01:59:39.000Z,0
2023-05-05T02:00:54.000Z,0
2023-05-05T02:02:09.000Z,0
2023-05-05T02:03:25.444Z,0
2023-05-05T02:04:40.000Z,0
2023-05-05T02:05:56.000Z,0
2023-05-05T02:07:13.000Z,0
2023-05-05T02:08:29.000Z,0
2023-05-05T02:09:45.000Z,0
2023-05-05T02:11:01.000Z,0
2023-05-05T02:12:18.000Z,0
2023-05-05T02:13:34.000Z,0
2023-05-05T02:14:50.000Z,0
2023-05-05T02:16:07.000Z,0
2023-05-05T02:17:23.000Z,0
2023-05-05T02:18:39.000Z,0
2023-05-05T02:19:55.000Z,0
2023-05-05T02:21:11.513Z,0
2023-05-05T02:22:27.775Z,0
2023-05-05T02:23:43.000Z,0
2023-05-05T02:25:00.000Z,0
2023-05-05T02:26:16.000Z,0
2023-05-05T02:27:32.000Z,0
2023-05-05T02:28:48.000Z,0
2023-05-05T02:30:05.000Z,0
2023-05-05T02:31:21.000Z,0
2023-05-05T02:32:37.000Z,0
2023-05-05T02:33:54.000Z,0
2023-05-05T02:35:10.000Z,0
2023-05-05T02:36:26.000Z,0
2023-05-05T02:37:41.000Z,0
2023-05-05T02:38:58.000Z,0
2023-05-05T02:40:14.000Z,0
2023-05-05T02:41:30.000Z,0
2023-05-05T02:42:47.000Z,0
2023-05-05T02:44:03.000Z,0
2023-05-05T02:45:19.976Z,0
2023-05-05T02:46:36.000Z,0
2023-05-05T02:47:52.000Z,0
2023-05-05T02:49:08.000Z,0
2023-05-05T02:50:24.000Z,0
2023-05-05T02:51:41.000Z,0
2023-05-05T02:52:57.000Z,0
2023-05-05T02:54:12.000Z,0
2023-05-05T02:55:28.000Z,0
2023-05-05T02:56:43.000Z,0
2023-05-05T02:57:58.000Z,0
2023-05-05T02:59:13.000Z,0
2023-05-05T03:00:30.000Z,0
2023-05-05T03:01:46.000Z,0
2023-05-05T03:03:02.000Z,0
2023-05-05T03:04:19.000Z,0
2023-05-05T03:05:35.000Z,0
2023-05-05T03:06:51.942Z,0
2023-05-05T03:08:07.000Z,0
2023-05-05T03:09:24.509Z,0
2023-05-05T03:10:40.000Z,0
2023-05-05T03:11:56.000Z,0
2023-05-05T03:13:13.000Z,0
2023-05-05T03:14:29.687Z,0
2023-05-05T03:15:44.000Z,0
2023-05-05T03:17:01.000Z,0
2023-05-05T03:18:17.000Z,0
2023-05-05T03:19:33.000Z,0
2023-05-05T03:20:49.000Z,0
2023-05-05T03:22:06.000Z,0
2023-05-05T03:23:22.700Z,0
2023-05-05T03:24:37.000Z,0
2023-05-05T03:25:53.000Z,0
2023-05-05T03:27:09.000Z,1
2023-05-05T03:28:25.000Z,0
2023-05-05T03:29:40.000Z,1
2023-05-05T03:30:56.000Z,1
2023-05-05T03:32:12.000Z,1
2023-05-05T03:33:28.000Z,0
2023-05-05T03:34:44.000Z,2
2023-05-05T03:36:01.000Z,1
2023-05-05T03:37:17.000Z,1
2023-05-05T03:38:33.000Z,4
2023-05-05T03:39:49.000Z,2
2023-05-05T03:41:06.040Z,4
2023-05-05T03:42:22.000Z,8
2023-05-05T03:43:38.000Z,11
2023-05-05T03:44:54.000Z,11
2023-05-05T03:46:10.000Z,9
2023-05-05T03:47:26.000Z,11
2023-05-05T03:48:42.000Z,15
2023-05-05T03:49:58.000Z,18
2023-05-05T03:51:14.000Z,23
2023-05-05T03:52:31.414Z,24
2023-05-05T03:53:47.000Z,29
2023-05-05T03:55:03.000Z,33
2023-05-05T03:56:19.000Z,37
2023-05-05T03:57:36.000Z,45
2023-05-05T03:58:52.000Z,44
2023-05-05T04:00:08.000Z,43
2023-05-05T04:01:25.045Z,47
2023-05-05T04:02:41.000Z,50
2023-05-05T04:03:56.000Z,53
2023-05-05T04:05:12.000Z,53
2023-05-05T04:06:28.000Z,54
2023-05-05T04:07:44.000Z,59
2023-05-05T04:09:01.000Z,61
2023-05-05T04:10:17.000Z,63
2023-05-05T04:11:33.000Z,61
2023-05-05T04:12:49.000Z,56
2023-05-05T04:14:06.000Z,54
2023-05-05T04:15:22.609Z,62
2023-05-05T04:16:38.000Z,73
2023-05-05T04:17:54.000Z,84
2023-05-05T04:19:11.000Z,101
2023-05-05T04:20:26.553Z,120
2023-05-05T04:21:42.000Z,146
2023-05-05T04:22:58.000Z,161
2023-05-05T04:24:15.000Z,167
2023-05-05T04:25:31.000Z,170
2023-05-05T04:26:47.000Z,170
2023-05-05T04:28:03.000Z,172
2023-05-05T04:29:20.189Z,166
2023-05-05T04:30:36.000Z,169
2023-05-05T04:31:52.000Z,175
2023-05-05T04:33:08.000Z,191
2023-05-05T04:34:24.000Z,211
2023-05-05T04:35:41.000Z,234
2023-05-05T04:36:56.000Z,254
2023-05-05T04:38:12.859Z,276
2023-05-05T04:39:29.087Z,296
2023-05-05T04:40:45.000Z,319
2023-05-05T04:42:01.000Z,342
2023-05-05T04:43:17.000Z,365
2023-05-05T04:44:33.000Z,390
2023-05-05T04:45:49.000Z,415
2023-05-05T04:47:06.000Z,444
2023-05-05T04:48:22.000Z,467
2023-05-05T04:49:38.000Z,486
2023-05-05T04:50:54.000Z,512
2023-05-05T04:52:11.415Z,538
2023-05-05T04:53:26.000Z,553
2023-05-05T04:54:42.000Z,573
2023-05-05T04:55:58.000Z,601
2023-05-05T04:57:15.000Z,628
2023-05-05T04:58:31.000Z,654
2023-05-05T04:59:47.000Z,671
2023-05-05T05:01:03.000Z,707
2023-05-05T05:02:20.311Z,727
2023-05-05T05:03:36.000Z,769
2023-05-05T05:04:51.000Z,793
2023-05-05T05:06:06.000Z,843
2023-05-05T05:07:23.000Z,855
2023-05-05T05:08:39.000Z,846
2023-05-05T05:09:55.000Z,827
2023-05-05T05:11:10.000Z,810
2023-05-05T05:12:25.000Z,886
2023-05-05T05:13:42.000Z,971
2023-05-05T05:14:58.000Z,1004
2023-05-05T05:16:14.000Z,1051
2023-05-05T05:17:30.201Z,1059
2023-05-05T05:18:46.436Z,1205
2023-05-05T05:20:02.000Z,1123
2023-05-05T05:21:18.000Z,1095
2023-05-05T05:22:35.131Z,1080
2023-05-05T05:23:51.380Z,1087
2023-05-05T05:25:07.000Z,963
2023-05-05T05:26:23.000Z,925
2023-05-05T05:27:39.000Z,878
2023-05-05T05:28:56.000Z,775
2023-05-05T05:30:12.000Z,666
2023-05-05T05:31:28.000Z,768
2023-05-05T05:32:44.000Z,802
2023-05-05T05:34:00.258Z,822
2023-05-05T05:35:16.000Z,899
2023-05-05T05:36:32.714Z,1050
2023-05-05T05:37:47.000Z,1105
2023-05-05T05:39:02.000Z,1174
2023-05-05T05:40:19.000Z,1123
2023-05-05T05:41:35.000Z,1144
2023-05-05T05:42:50.000Z,1232
2023-05-05T05:44:05.000Z,1287
2023-05-05T05:45:22.000Z,1312
2023-05-05T05:46:38.000Z,1427
2023-05-05T05:47:54.000Z,1519
2023-05-05T05:49:10.000Z,1491
2023-05-05T05:50:27.000Z,1003
2023-05-05T05:51:43.000Z,1334
2023-05-05T05:52:59.000Z,1250
2023-05-05T05:54:15.000Z,1310
2023-05-05T05:55:32.301Z,1027
2023-05-05T05:56:48.000Z,1048
2023-05-05T05:58:04.767Z,1054
2023-05-05T05:59:20.000Z,1110
2023-05-05T06:00:35.000Z,1161
2023-05-05T06:01:52.488Z,1223
2023-05-05T06:03:08.000Z,1223
2023-05-05T06:04:24.000Z,1236
2023-05-05T06:05:40.000Z,1241
2023-05-05T06:06:57.000Z,1402
2023-05-05T06:08:13.000Z,1470
2023-05-05T06:09:29.000Z,1513
2023-05-05T06:10:45.000Z,1537
2023-05-05T06:12:02.000Z,1552
2023-05-05T06:13:18.000Z,1414
2023-05-05T06:14:34.000Z,1755
2023-05-05T06:15:50.000Z,1758
2023-05-05T06:17:06.000Z,1716
2023-05-05T06:18:22.000Z,1738
2023-05-05T06:19:38.000Z,1760
2023-05-05T06:20:54.000Z,1801
2023-05-05T06:22:10.000Z,1994
2023-05-05T06:23:27.000Z,1799
2023-05-05T06:24:43.000Z,2078
2023-05-05T06:25:59.000Z,2430
2023-05-05T06:27:15.000Z,2564
2023-05-05T06:28:32.000Z,2524
2023-05-05T06:29:48.000Z,2898
2023-05-05T06:31:04.000Z,2395
2023-05-05T06:32:20.000Z,2923
2023-05-05T06:34:52.000Z,2475
2023-05-05T06:36:08.000Z,2357
2023-05-05T06:37:24.000Z,3177
2023-05-05T06:38:41.000Z,2193
2023-05-05T06:39:57.000Z,3102
2023-05-05T06:41:13.000Z,2991
2023-05-05T06:42:29.000Z,2578
2023-05-05T06:43:45.000Z,3108
2023-05-05T06:45:02.418Z,3182
2023-05-05T06:46:18.000Z,3172
2023-05-05T06:47:34.000Z,3182
2023-05-05T06:48:50.000Z,2989
2023-05-05T06:50:06.000Z,2781
2023-05-05T06:51:22.000Z,3034
2023-05-05T06:52:38.861Z,3325
2023-05-05T06:53:54.000Z,3231
2023-05-05T06:55:11.000Z,3111
2023-05-05T06:56:27.000Z,3206
2023-05-05T06:57:43.000Z,3011
2023-05-05T06:58:59.000Z,3451
2023-05-05T07:00:16.000Z,3535
2023-05-05T07:01:32.000Z,3458
2023-05-05T07:02:48.718Z,3494
2023-05-05T07:04:04.000Z,3496
2023-05-05T07:05:21.183Z,3768
2023-05-05T07:06:36.000Z,3714
2023-05-05T07:07:52.000Z,3868
2023-05-05T07:09:08.000Z,3762
2023-05-05T07:10:25.124Z,3693
2023-05-05T07:12:57.000Z,4019
2023-05-05T07:14:13.000Z,3735
2023-05-05T07:15:29.000Z,3803
2023-05-05T07:16:46.000Z,3909
2023-05-05T07:18:02.000Z,4028
2023-05-05T07:19:18.000Z,4084
2023-05-05T07:20:34.000Z,4285
2023-05-05T07:21:51.231Z,3984
2023-05-05T07:23:06.000Z,4470
2023-05-05T07:25:38.000Z,4017
2023-05-05T07:26:55.162Z,4036
2023-05-05T07:28:11.000Z,4357
2023-05-05T07:29:27.000Z,4005
2023-05-05T07:30:43.000Z,4423
2023-05-05T07:31:59.000Z,4664
2023-05-05T07:33:16.000Z,4070
2023-05-05T07:34:32.000Z,4312
2023-05-05T07:35:48.000Z,4469
2023-05-05T07:37:04.000Z,4435
2023-05-05T07:38:21.000Z,4524
2023-05-05T07:39:36.000Z,4342
2023-05-05T07:40:52.000Z,4415
2023-05-05T07:42:08.000Z,4632
2023-05-05T07:43:24.000Z,4437
2023-05-05T07:44:41.000Z,4694
2023-05-05T07:45:57.000Z,4753
2023-05-05T07:47:13.000Z,4831
2023-05-05T07:48:29.000Z,5500
2023-05-05T07:49:46.000Z,4685
2023-05-05T07:51:02.000Z,4792
2023-05-05T07:52:18.000Z,5105
2023-05-05T07:53:34.000Z,4676
2023-05-05T07:54:51.000Z,5002
2023-05-05T07:56:06.000Z,5379
2023-05-05T07:57:22.000Z,4965
2023-05-05T07:58:38.000Z,4814
2023-05-05T07:59:55.000Z,5298
2023-05-05T08:01:11.507Z,4740
2023-05-05T08:03:43.000Z,4897
2023-05-05T08:04:59.000Z,4940
2023-05-05T08:06:16.000Z,5537
2023-05-05T08:07:32.000Z,5898
2023-05-05T08:08:48.000Z,5298
2023-05-05T08:10:04.000Z,5581
2023-05-05T08:11:21.000Z,5174
2023-05-05T08:12:36.000Z,5395
2023-05-05T08:13:52.844Z,5471
2023-05-05T08:15:08.000Z,5389
2023-05-05T08:16:25.000Z,6202
2023-05-05T08:17:41.000Z,6175
2023-05-05T08:18:57.793Z,6035
2023-05-05T08:20:13.000Z,6077
2023-05-05T08:21:30.258Z,5575
2023-05-05T08:22:46.000Z,5785
2023-05-05T08:24:02.000Z,6165
2023-05-05T08:25:18.000Z,6476
2023-05-05T08:26:34.000Z,6473
2023-05-05T08:27:51.000Z,6042
2023-05-05T08:29:06.000Z,6499
2023-05-05T08:30:22.000Z,5963
2023-05-05T08:31:38.000Z,6390
2023-05-05T08:32:55.000Z,6458
2023-05-05T08:34:11.000Z,6334
2023-05-05T08:35:27.000Z,7018
2023-05-05T08:36:43.000Z,6780
2023-05-05T08:38:00.282Z,6182
2023-05-05T08:39:16.000Z,6363
2023-05-05T08:40:32.000Z,6687
2023-05-05T08:41:48.000Z,7029
2023-05-05T08:43:04.000Z,6050
2023-05-05T08:44:21.000Z,6659
2023-05-05T08:45:36.000Z,6771
2023-05-05T08:46:52.000Z,6673
2023-05-05T08:48:08.000Z,7469
2023-05-05T08:49:25.000Z,7275
2023-05-05T08:50:41.000Z,7415
2023-05-05T08:51:57.000Z,8054
2023-05-05T08:54:30.000Z,7561
2023-05-05T08:55:46.000Z,7494
2023-05-05T08:57:02.000Z,7639
2023-05-05T08:58:18.000Z,7402
2023-05-05T08:59:35.000Z,7865
2023-05-05T09:00:51.000Z,7905
2023-05-05T09:02:06.000Z,6884
2023-05-05T09:03:22.000Z,6830
2023-05-05T09:04:38.000Z,7308
2023-05-05T09:05:55.000Z,7224
2023-05-05T09:07:11.000Z,7690
2023-05-05T09:08:27.000Z,8211
2023-05-05T09:09:43.000Z,7710
2023-05-05T09:11:00.000Z,7481
2023-05-05T09:12:16.000Z,7622
2023-05-05T09:13:32.000Z,7047
2023-05-05T09:14:48.000Z,6759
2023-05-05T09:16:05.000Z,6705
2023-05-05T09:17:21.000Z,7423
2023-05-05T09:18:36.000Z,7548
2023-05-05T09:19:52.000Z,7607
2023-05-05T09:21:09.243Z,7746
2023-05-05T09:22:25.000Z,7975
2023-05-05T09:23:41.000Z,8370
2023-05-05T09:24:57.000Z,7937
2023-05-05T09:26:13.000Z,7050
2023-05-05T09:27:30.451Z,8108
2023-05-05T09:28:46.000Z,7594
2023-05-05T09:30:02.000Z,8452
2023-05-05T09:31:19.109Z,7744
2023-05-05T09:32:34.000Z,8113
2023-05-05T09:33:50.000Z,8313
2023-05-05T09:35:06.000Z,6082
2023-05-05T09:36:22.000Z,8732
2023-05-05T09:37:39.306Z,7203
2023-05-05T09:38:55.553Z,9070
2023-05-05T09:40:11.000Z,7400
2023-05-05T09:41:27.000Z,8929
2023-05-05T09:42:43.000Z,7115
2023-05-05T09:44:00.000Z,9577
2023-05-05T09:45:16.000Z,7314
2023-05-05T09:46:32.000Z,8220
2023-05-05T09:47:48.000Z,8878
2023-05-05T09:49:04.000Z,9099
2023-05-05T09:50:20.000Z,8319
2023-05-05T09:51:36.000Z,8669
2023-05-05T09:52:53.121Z,9247
2023-05-05T09:54:09.368Z,7891
2023-05-05T09:55:25.000Z,7716
2023-05-05T09:56:41.000Z,8123
2023-05-05T09:57:57.000Z,7948
2023-05-05T09:59:14.000Z,8086
2023-05-05T10:00:30.000Z,7683
2023-05-05T10:01:46.000Z,8533
2023-05-05T10:03:02.000Z,8841
2023-05-05T10:04:18.000Z,8386
2023-05-05T10:05:35.000Z,8255
2023-05-05T10:06:50.000Z,8278
2023-05-05T10:08:06.000Z,8656
2023-05-05T10:09:21.000Z,8576
2023-05-05T10:10:37.000Z,8339
2023-05-05T10:11:53.000Z,10314
2023-05-05T10:13:09.000Z,8165
2023-05-05T10:14:25.000Z,8136
2023-05-05T10:15:42.393Z,9294
2023-05-05T10:16:58.000Z,8817
2023-05-05T10:18:14.000Z,8890
2023-05-05T10:19:30.000Z,8951
2023-05-05T10:20:47.000Z,4967
2023-05-05T10:22:03.557Z,6361
2023-05-05T10:23:19.000Z,3003
2023-05-05T10:24:35.000Z,8969
2023-05-05T10:25:52.000Z,9037
2023-05-05T10:27:07.000Z,8403
2023-05-05T10:28:23.000Z,9589
2023-05-05T10:29:39.000Z,8970
2023-05-05T10:30:55.000Z,3255
2023-05-05T10:32:12.000Z,8890
2023-05-05T10:33:28.000Z,8801
2023-05-05T10:34:44.000Z,9636
2023-05-05T10:36:00.000Z,9274
2023-05-05T10:37:17.000Z,10080
2023-05-05T10:38:33.000Z,7638
2023-05-05T10:39:49.000Z,7641
2023-05-05T10:41:05.000Z,10660
2023-05-05T10:42:22.000Z,4527
2023-05-05T10:43:37.000Z,9378
2023-05-05T10:44:53.000Z,8196
2023-05-05T10:46:10.022Z,9291
2023-05-05T10:47:25.000Z,9732
2023-05-05T10:48:42.000Z,9033
2023-05-05T10:49:58.000Z,9984
2023-05-05T10:51:14.000Z,6679
2023-05-05T10:52:30.000Z,6796
2023-05-05T10:53:47.000Z,8444
2023-05-05T10:55:03.000Z,7562
2023-05-05T10:56:19.000Z,8011
2023-05-05T10:57:35.000Z,9238
2023-05-05T10:58:52.000Z,8747
2023-05-05T11:00:07.593Z,9489
2023-05-05T11:01:23.838Z,8408
2023-05-05T11:02:39.000Z,8272
2023-05-05T11:03:56.000Z,6964
2023-05-05T11:05:12.000Z,10521
2023-05-05T11:06:28.741Z,6181
2023-05-05T11:07:44.000Z,7327
2023-05-05T11:09:00.000Z,8878
2023-05-05T11:10:17.000Z,8269
2023-05-05T11:11:33.000Z,9213
2023-05-05T11:12:49.000Z,8933
2023-05-05T11:14:05.000Z,9130
2023-05-05T11:15:22.000Z,8309
2023-05-05T11:16:37.000Z,9959
2023-05-05T11:17:53.000Z,6996
2023-05-05T11:19:09.000Z,6368
2023-05-05T11:20:26.000Z,6382
2023-05-05T11:21:42.000Z,4076
2023-05-05T11:22:58.000Z,9395
2023-05-05T11:24:15.028Z,9988
2023-05-05T11:25:31.000Z,7813
2023-05-05T11:26:47.000Z,8455
2023-05-05T11:28:03.000Z,5645
2023-05-05T11:29:19.000Z,6136
2023-05-05T11:30:35.000Z,6253
2023-05-05T11:31:52.000Z,6973
2023-05-05T11:33:07.000Z,6253
2023-05-05T11:34:23.000Z,5102
2023-05-05T11:35:39.000Z,5517
2023-05-05T11:36:56.000Z,4937
2023-05-05T11:39:28.000Z,7059
2023-05-05T11:40:44.000Z,5492
2023-05-05T11:42:01.000Z,5298
2023-05-05T11:43:17.000Z,5344
2023-05-05T11:44:33.000Z,7972
2023-05-05T11:45:49.000Z,6520
2023-05-05T11:47:06.000Z,6282
2023-05-05T11:48:22.000Z,5292
2023-05-05T11:49:37.000Z,5746
2023-05-05T11:50:53.990Z,6205
2023-05-05T11:52:09.000Z,5882
2023-05-05T11:53:26.000Z,6008
2023-05-05T11:54:42.000Z,6428
2023-05-05T11:55:58.000Z,6205
2023-05-05T11:57:15.130Z,6502
2023-05-05T11:58:31.000Z,6128
2023-05-05T11:59:47.000Z,6310
2023-05-05T12:01:03.839Z,6179
2023-05-05T12:02:19.000Z,5433
2023-05-05T12:03:36.000Z,4859
2023-05-05T12:04:52.000Z,4370
2023-05-05T12:06:07.000Z,4187
2023-05-05T12:07:23.000Z,4321
2023-05-05T12:08:39.000Z,4537
2023-05-05T12:09:56.000Z,4512
2023-05-05T12:11:12.000Z,4498
2023-05-05T12:12:28.000Z,4412
2023-05-05T12:13:45.174Z,4297
2023-05-05T12:15:01.000Z,4225
2023-05-05T12:16:17.000Z,4186
2023-05-05T12:17:33.000Z,4320
2023-05-05T12:18:49.000Z,4539
2023-05-05T12:20:06.000Z,4678
2023-05-05T12:21:22.567Z,4615
2023-05-05T12:22:37.000Z,4522
2023-05-05T12:23:53.000Z,4467
2023-05-05T12:25:10.000Z,4578
2023-05-05T12:26:26.000Z,4793
2023-05-05T12:27:42.000Z,4764
2023-05-05T12:30:14.000Z,4919
2023-05-05T12:31:31.470Z,4670
2023-05-05T12:32:47.000Z,4510
2023-05-05T12:34:03.000Z,4246
2023-05-05T12:35:20.157Z,4118
2023-05-05T12:36:36.000Z,3773
2023-05-05T12:37:52.000Z,3481
2023-05-05T12:39:07.000Z,3353
2023-05-05T12:40:24.111Z,3284
2023-05-05T12:42:56.000Z,3102
2023-05-05T12:44:12.000Z,3011
2023-05-05T12:45:28.000Z,2823
2023-05-05T12:46:45.000Z,2702
2023-05-05T12:48:01.000Z,2620
2023-05-05T12:49:17.000Z,2578
2023-05-05T12:50:33.000Z,2524
2023-05-05T12:51:50.180Z,2456
2023-05-05T12:53:06.000Z,2408
2023-05-05T12:54:22.000Z,2323
2023-05-05T12:55:37.000Z,2264
2023-05-05T12:56:53.000Z,2210
2023-05-05T12:58:10.000Z,2189
2023-05-05T12:59:26.000Z,2207
2023-05-05T13:00:42.832Z,2289
2023-05-05T13:01:58.000Z,2368
2023-05-05T13:03:15.000Z,2407
2023-05-05T13:04:30.000Z,2405
2023-05-05T13:05:45.000Z,2296
2023-05-05T13:08:18.000Z,2012
2023-05-05T13:09:34.000Z,1938
2023-05-05T13:10:50.763Z,1921
2023-05-05T13:12:06.000Z,1915
2023-05-05T13:13:22.000Z,1898
2023-05-05T13:14:37.000Z,1871
2023-05-05T13:15:53.000Z,1790
2023-05-05T13:17:09.000Z,1673
2023-05-05T13:18:26.211Z,1526
2023-05-05T13:19:42.433Z,1393
2023-05-05T13:20:58.665Z,1308
2023-05-05T13:22:14.000Z,1276
2023-05-05T13:23:30.000Z,1275
2023-05-05T13:24:47.000Z,1251
2023-05-05T13:26:03.000Z,1219
2023-05-05T13:27:19.000Z,1178
2023-05-05T13:28:35.000Z,1103
2023-05-05T13:29:52.000Z,1038
2023-05-05T13:31:07.000Z,984
2023-05-05T13:32:23.000Z,922
2023-05-05T13:33:39.000Z,844
2023-05-05T13:34:56.000Z,781
2023-05-05T13:36:12.000Z,724
2023-05-05T13:37:28.000Z,669
2023-05-05T13:38:44.000Z,630
2023-05-05T13:40:00.000Z,573
2023-05-05T13:41:17.000Z,532
2023-05-05T13:42:33.000Z,471
2023-05-05T13:43:49.000Z,409
2023-05-05T13:45:05.000Z,364
2023-05-05T13:46:22.000Z,345
2023-05-05T13:47:37.000Z,345
2023-05-05T13:48:53.000Z,346
2023-05-05T13:50:09.000Z,368
2023-05-05T13:51:26.000Z,392
2023-05-05T13:52:42.000Z,432
2023-05-05T13:53:58.765Z,529
2023-05-05T13:55:14.991Z,593
2023-05-05T13:56:30.000Z,724
2023-05-05T13:59:03.000Z,993
2023-05-05T14:00:19.000Z,1055
2023-05-05T14:01:35.000Z,1167
2023-05-05T14:02:52.000Z,1167
2023-05-05T14:04:07.000Z,1174
2023-05-05T14:05:23.000Z,1244
2023-05-05T14:06:39.000Z,1354
2023-05-05T14:07:56.000Z,1449
2023-05-05T14:09:12.000Z,1557
2023-05-05T14:10:28.000Z,1646
2023-05-05T14:11:44.000Z,1676
2023-05-05T14:13:01.000Z,1728
2023-05-05T14:14:17.000Z,1787
2023-05-05T14:15:33.000Z,1815
2023-05-05T14:16:49.000Z,1754
2023-05-05T14:18:05.000Z,1697
2023-05-05T14:19:22.000Z,1725
2023-05-05T14:20:37.000Z,1803
2023-05-05T14:21:53.000Z,1981
2023-05-05T14:23:09.000Z,2225
2023-05-05T14:24:26.000Z,1725
2023-05-05T14:25:42.000Z,1133
2023-05-05T14:26:58.000Z,677
2023-05-05T14:28:14.000Z,453
2023-05-05T14:29:31.000Z,490
2023-05-05T14:30:47.000Z,472
2023-05-05T14:32:03.000Z,516
2023-05-05T14:33:19.000Z,658
2023-05-05T14:34:36.000Z,718
2023-05-05T14:35:52.479Z,780
2023-05-05T14:37:07.000Z,1207
2023-05-05T14:38:23.984Z,1318
2023-05-05T14:39:39.000Z,1331
2023-05-05T14:40:56.000Z,1599
2023-05-05T14:42:12.000Z,1861
2023-05-05T14:43:28.000Z,1865
2023-05-05T14:44:44.000Z,1844
2023-05-05T14:46:01.000Z,2033
2023-05-05T14:47:17.000Z,1688
2023-05-05T14:49:49.000Z,1547
2023-05-05T14:51:06.000Z,1471
2023-05-05T14:52:22.000Z,1227
2023-05-05T14:53:37.000Z,973
2023-05-05T14:54:53.000Z,1263
2023-05-05T14:56:10.000Z,1439
2023-05-05T14:57:26.000Z,1347
2023-05-05T14:58:42.000Z,1151
2023-05-05T14:59:58.000Z,1085
2023-05-05T15:02:31.000Z,1233
2023-05-05T15:03:47.000Z,1239
2023-05-05T15:05:03.000Z,1192
2023-05-05T15:06:19.000Z,1204
2023-05-05T15:07:36.000Z,1224
2023-05-05T15:08:52.000Z,1284
2023-05-05T15:10:07.000Z,1212
2023-05-05T15:11:23.000Z,1165
2023-05-05T15:12:40.000Z,1260
2023-05-05T15:13:56.521Z,1276
2023-05-05T15:15:12.000Z,1258
2023-05-05T15:16:28.000Z,1557
2023-05-05T15:17:45.240Z,1612
2023-05-05T15:19:01.000Z,1581
2023-05-05T15:20:17.677Z,1483
2023-05-05T15:21:33.000Z,1360
2023-05-05T15:22:49.000Z,1286
2023-05-05T15:24:06.000Z,1250
2023-05-05T15:25:22.000Z,1033
2023-05-05T15:26:37.000Z,1023
2023-05-05T15:27:53.000Z,971
2023-05-05T15:29:10.000Z,1034
2023-05-05T15:30:26.000Z,997
2023-05-05T15:31:42.000Z,1027
2023-05-05T15:32:58.000Z,1066
2023-05-05T15:34:15.000Z,1085
2023-05-05T15:35:31.000Z,1156
2023-05-05T15:36:47.000Z,1088
2023-05-05T15:38:03.000Z,1200
2023-05-05T15:40:36.000Z,1247
2023-05-05T15:41:52.000Z,1214
2023-05-05T15:43:07.935Z,1352
2023-05-05T15:44:23.000Z,1487
2023-05-05T15:45:39.424Z,1609
2023-05-05T15:46:54.000Z,1651
2023-05-05T15:48:10.000Z,1657
2023-05-05T15:49:26.000Z,1744
2023-05-05T15:50:43.000Z,1777
2023-05-05T15:51:59.000Z,1780
2023-05-05T15:53:15.000Z,1909
2023-05-05T15:54:31.000Z,1929
2023-05-05T15:55:47.000Z,1938
2023-05-05T15:57:02.000Z,1795
2023-05-05T15:58:18.000Z,1412
2023-05-05T15:59:34.000Z,1246
2023-05-05T16:00:51.000Z,912
2023-05-05T16:02:07.000Z,620
2023-05-05T16:03:23.000Z,527
2023-05-05T16:04:39.000Z,377
2023-05-05T16:05:55.000Z,209
2023-05-05T16:07:12.427Z,176
2023-05-05T16:08:28.659Z,215
2023-05-05T16:09:44.000Z,209
2023-05-05T16:11:00.000Z,232
2023-05-05T16:12:17.000Z,287
2023-05-05T16:13:32.000Z,354
2023-05-05T16:14:48.000Z,406
2023-05-05T16:16:04.000Z,413
2023-05-05T16:18:37.000Z,413
2023-05-05T16:19:53.000Z,513
2023-05-05T16:21:09.000Z,588
2023-05-05T16:22:26.000Z,611
2023-05-05T16:23:42.000Z,612
2023-05-05T16:24:58.000Z,622
2023-05-05T16:26:14.000Z,642
2023-05-05T16:28:47.000Z,659
2023-05-05T16:30:02.000Z,715
2023-05-05T16:31:18.907Z,770
2023-05-05T16:32:34.000Z,868
2023-05-05T16:33:51.000Z,934
2023-05-05T16:35:07.000Z,942
2023-05-05T16:36:23.849Z,992
2023-05-05T16:37:39.000Z,1104
2023-05-05T16:38:56.000Z,1259
2023-05-05T16:40:12.000Z,1453
2023-05-05T16:41:28.000Z,1474
2023-05-05T16:42:44.996Z,1493
2023-05-05T16:44:00.000Z,1449
2023-05-05T16:45:17.000Z,1288
2023-05-05T16:46:32.000Z,1159
2023-05-05T16:47:48.000Z,1043
2023-05-05T16:49:04.000Z,956
2023-05-05T16:50:21.000Z,873
2023-05-05T16:51:37.000Z,780
2023-05-05T16:52:53.000Z,693
2023-05-05T16:54:09.000Z,589
2023-05-05T16:55:26.000Z,501
2023-05-05T16:56:42.000Z,444
2023-05-05T16:57:58.000Z,417
2023-05-05T16:59:14.000Z,404
2023-05-05T17:00:30.000Z,407
2023-05-05T17:01:45.000Z,424
2023-05-05T17:03:00.000Z,454
2023-05-05T17:04:15.000Z,468
2023-05-05T17:05:32.000Z,482
2023-05-05T17:06:48.000Z,491
2023-05-05T17:08:04.000Z,492
2023-05-05T17:09:20.000Z,487
2023-05-05T17:10:36.000Z,467
2023-05-05T17:11:53.000Z,459
2023-05-05T17:13:09.000Z,457
2023-05-05T17:14:25.944Z,481
2023-05-05T17:15:41.000Z,467
2023-05-05T17:16:58.000Z,470
2023-05-05T17:18:14.614Z,473
2023-05-05T17:19:30.000Z,442
2023-05-05T17:20:45.000Z,409
2023-05-05T17:22:02.358Z,390
2023-05-05T17:23:18.000Z,394
2023-05-05T17:24:34.000Z,395
2023-05-05T17:25:50.000Z,410
2023-05-05T17:27:07.000Z,431
2023-05-05T17:28:23.000Z,443
2023-05-05T17:29:39.000Z,457
2023-05-05T17:30:55.000Z,476
2023-05-05T17:32:11.000Z,483
2023-05-05T17:33:28.000Z,494
2023-05-05T17:34:44.685Z,503
2023-05-05T17:36:00.000Z,465
2023-05-05T17:37:15.000Z,473
2023-05-05T17:38:32.381Z,482
2023-05-05T17:39:48.000Z,468
2023-05-05T17:41:04.000Z,380
2023-05-05T17:42:20.000Z,592
2023-05-05T17:43:37.000Z,515